createdAt,value
2023-04-16T00:00:21.968Z,20.69
2023-04-16T00:02:47.765Z,20.70
2023-04-16T00:05:14.129Z,20.70
2023-04-16T00:07:40.296Z,20.69
2023-04-16T00:10:06.661Z,20.69
2023-04-16T00:12:32.387Z,20.69
2023-04-16T00:14:58.326Z,20.70
2023-04-16T00:17:24.243Z,20.71
2023-04-16T00:19:49.930Z,20.70
2023-04-16T00:22:15.631Z,20.70
2023-04-16T00:24:41.412Z,20.70
2023-04-16T00:27:07.086Z,20.71
2023-04-16T00:29:33.959Z,20.70
2023-04-16T00:31:59.997Z,20.70
2023-04-16T00:34:25.681Z,20.70
2023-04-16T00:36:51.331Z,20.70
2023-04-16T00:39:16.964Z,20.70
2023-04-16T00:41:43.229Z,20.70
2023-04-16T00:44:08.981Z,20.70
2023-04-16T00:46:34.765Z,20.69
2023-04-16T00:49:01.974Z,20.70
2023-04-16T00:51:27.678Z,20.70
2023-04-16T00:53:53.708Z,20.70
2023-04-16T00:56:20.569Z,20.69
2023-04-16T00:58:46.434Z,20.70
2023-04-16T01:01:13.588Z,20.70
2023-04-16T01:03:42.800Z,20.70
2023-04-16T01:06:08.824Z,20.70
2023-04-16T01:08:34.769Z,20.70
2023-04-16T01:11:00.625Z,20.70
2023-04-16T01:13:26.266Z,20.70
2023-04-16T01:15:51.961Z,20.69
2023-04-16T01:18:18.937Z,20.70
2023-04-16T01:20:45.447Z,20.70
2023-04-16T01:23:11.114Z,20.69
2023-04-16T01:25:37.277Z,20.70
2023-04-16T01:28:02.990Z,20.69
2023-04-16T01:30:28.670Z,20.71
2023-04-16T01:32:54.383Z,20.71
2023-04-16T01:35:20.105Z,20.71
2023-04-16T01:37:45.979Z,20.70
2023-04-16T01:40:11.745Z,20.71
2023-04-16T01:42:37.788Z,20.71
2023-04-16T01:45:04.403Z,20.71
2023-04-16T01:47:30.205Z,20.70
2023-04-16T01:49:56.037Z,20.72
2023-04-16T01:52:21.727Z,20.72
2023-04-16T01:54:47.388Z,20.71
2023-04-16T01:57:13.041Z,20.71
2023-04-16T01:59:39.062Z,20.72
2023-04-16T02:02:10.171Z,20.72
2023-04-16T02:04:37.553Z,20.71
2023-04-16T02:07:04.485Z,20.71
2023-04-16T02:09:30.603Z,20.72
2023-04-16T02:11:56.262Z,20.71
2023-04-16T02:14:24.704Z,20.71
2023-04-16T02:16:51.211Z,20.71
2023-04-16T02:19:17.325Z,20.70
2023-04-16T02:21:42.963Z,20.71
2023-04-16T02:24:08.597Z,20.71
2023-04-16T02:26:34.269Z,20.72
2023-04-16T02:29:00.567Z,20.72
2023-04-16T02:31:27.656Z,20.72
2023-04-16T02:33:53.722Z,20.72
2023-04-16T02:36:19.500Z,20.72
2023-04-16T02:38:45.354Z,20.71
2023-04-16T02:41:11.039Z,20.72
2023-04-16T02:43:36.683Z,20.72
2023-04-16T02:46:02.439Z,20.72
2023-04-16T02:48:28.114Z,20.71
2023-04-16T02:50:53.761Z,20.73
2023-04-16T02:53:19.489Z,20.72
2023-04-16T02:55:54.054Z,20.72
2023-04-16T02:58:21.675Z,20.72
2023-04-16T03:00:47.462Z,20.72
2023-04-16T03:03:13.639Z,20.72
2023-04-16T03:05:40.287Z,20.72
2023-04-16T03:08:06.627Z,20.73
2023-04-16T03:10:32.351Z,20.72
2023-04-16T03:12:58.165Z,20.73
2023-04-16T03:15:24.449Z,20.72
2023-04-16T03:17:50.435Z,20.72
2023-04-16T03:20:17.067Z,20.71
2023-04-16T03:22:42.735Z,20.72
2023-04-16T03:25:08.490Z,20.73
2023-04-16T03:27:34.464Z,20.72
2023-04-16T03:30:00.386Z,20.72
2023-04-16T03:32:26.156Z,20.72
2023-04-16T03:34:51.860Z,20.72
2023-04-16T03:37:17.546Z,20.72
2023-04-16T03:39:43.240Z,20.72
2023-04-16T03:42:08.894Z,20.73
2023-04-16T03:44:34.618Z,20.73
2023-04-16T03:47:00.381Z,20.73
2023-04-16T03:49:26.080Z,20.73
2023-04-16T03:51:51.824Z,20.74
2023-04-16T03:54:17.483Z,20.74
2023-04-16T03:56:43.294Z,20.73
2023-04-16T03:59:09.777Z,20.74
2023-04-16T04:01:35.671Z,20.71
2023-04-16T04:04:01.504Z,20.72
2023-04-16T04:06:27.247Z,20.72
2023-04-16T04:08:53.180Z,20.72
2023-04-16T04:11:19.070Z,20.73
2023-04-16T04:13:44.925Z,20.73
2023-04-16T04:16:10.736Z,20.74
2023-04-16T04:18:36.452Z,20.75
2023-04-16T04:21:09.589Z,20.75
2023-04-16T04:23:35.541Z,20.74
2023-04-16T04:26:04.586Z,20.73
2023-04-16T04:28:31.013Z,20.74
2023-04-16T04:30:57.658Z,20.74
2023-04-16T04:33:23.876Z,20.74
2023-04-16T04:35:49.687Z,20.73
2023-04-16T04:38:18.957Z,20.74
2023-04-16T04:40:45.226Z,20.73
2023-04-16T04:43:10.869Z,20.74
2023-04-16T04:45:36.653Z,20.76
2023-04-16T04:48:02.352Z,20.75
2023-04-16T04:50:28.017Z,20.75
2023-04-16T04:52:53.672Z,20.73
2023-04-16T04:55:19.669Z,20.73
2023-04-16T04:57:45.543Z,20.74
2023-04-16T05:00:11.348Z,20.74
2023-04-16T05:02:37.707Z,20.74
2023-04-16T05:05:04.394Z,20.74
2023-04-16T05:07:30.204Z,20.74
2023-04-16T05:09:55.845Z,20.75
2023-04-16T05:12:21.523Z,20.75
2023-04-16T05:14:47.188Z,20.75
2023-04-16T05:17:12.972Z,20.74
2023-04-16T05:19:38.598Z,20.74
2023-04-16T05:22:04.382Z,20.75
2023-04-16T05:24:30.037Z,20.75
2023-04-16T05:26:56.405Z,20.74
2023-04-16T05:29:22.042Z,20.74
2023-04-16T05:31:47.746Z,20.74
2023-04-16T05:34:13.382Z,20.75
2023-04-16T05:36:39.025Z,20.74
2023-04-16T05:39:05.176Z,20.76
2023-04-16T05:41:30.826Z,20.74
2023-04-16T05:43:56.468Z,20.74
2023-04-16T05:46:22.181Z,20.74
2023-04-16T05:48:47.868Z,20.75
2023-04-16T05:51:13.557Z,20.75
2023-04-16T05:53:39.194Z,20.75
2023-04-16T05:56:05.145Z,20.74
2023-04-16T05:58:30.859Z,20.75
2023-04-16T06:00:56.644Z,20.75
2023-04-16T06:03:22.345Z,20.75
2023-04-16T06:05:48.094Z,20.75
2023-04-16T06:08:13.817Z,20.77
2023-04-16T06:10:39.533Z,20.75
2023-04-16T06:13:05.198Z,20.75
2023-04-16T06:15:30.828Z,20.76
2023-04-16T06:17:58.050Z,20.76
2023-04-16T06:20:25.314Z,20.75
2023-04-16T06:22:50.981Z,20.76
2023-04-16T06:25:18.247Z,20.75
2023-04-16T06:27:43.949Z,20.76
2023-04-16T06:30:12.313Z,20.76
2023-04-16T06:32:37.930Z,20.75
2023-04-16T06:35:04.028Z,20.75
2023-04-16T06:37:29.697Z,20.75
2023-04-16T06:39:55.341Z,20.77
2023-04-16T06:42:21.046Z,20.75
2023-04-16T06:44:47.086Z,20.77
2023-04-16T06:47:12.730Z,20.75
2023-04-16T06:49:39.102Z,20.76
2023-04-16T06:52:05.914Z,20.77
2023-04-16T06:54:31.811Z,20.75
2023-04-16T06:56:57.464Z,20.76
2023-04-16T06:59:23.109Z,20.76
2023-04-16T07:01:48.829Z,20.78
2023-04-16T07:04:14.621Z,20.76
2023-04-16T07:06:40.403Z,20.76
2023-04-16T07:09:06.050Z,20.77
2023-04-16T07:11:31.727Z,20.77
2023-04-16T07:13:58.151Z,20.76
2023-04-16T07:16:23.875Z,20.77
2023-04-16T07:18:49.550Z,20.76
2023-04-16T07:21:15.238Z,20.76
2023-04-16T07:23:40.950Z,20.75
2023-04-16T07:26:06.599Z,20.76
2023-04-16T07:28:32.297Z,20.76
2023-04-16T07:30:57.985Z,20.78
2023-04-16T07:33:23.833Z,20.78
2023-04-16T07:35:50.377Z,20.77
2023-04-16T07:38:16.016Z,20.77
2023-04-16T07:40:41.666Z,20.76
2023-04-16T07:43:07.367Z,20.77
2023-04-16T07:45:33.033Z,20.77
2023-04-16T07:47:58.711Z,20.77
2023-04-16T07:50:24.670Z,20.78
2023-04-16T07:52:50.309Z,20.76
2023-04-16T07:55:16.033Z,20.77
2023-04-16T07:57:41.691Z,20.77
2023-04-16T08:00:08.398Z,20.77
2023-04-16T08:02:34.161Z,20.78
2023-04-16T08:05:00.000Z,20.78
2023-04-16T08:07:25.710Z,20.77
2023-04-16T08:09:51.895Z,20.77
2023-04-16T08:12:17.672Z,20.76
2023-04-16T08:14:44.676Z,20.77
2023-04-16T08:17:12.081Z,20.79
2023-04-16T08:19:37.720Z,20.77
2023-04-16T08:22:03.379Z,20.77
2023-04-16T08:24:29.022Z,20.78
2023-04-16T08:26:56.998Z,20.77
2023-04-16T08:29:25.998Z,20.77
2023-04-16T08:31:52.826Z,20.77
2023-04-16T08:34:18.807Z,20.78
2023-04-16T08:36:45.263Z,20.78
2023-04-16T08:39:11.105Z,20.78
2023-04-16T08:41:40.413Z,20.78
2023-04-16T08:44:08.192Z,20.78
2023-04-16T08:46:36.886Z,20.77
2023-04-16T08:49:06.004Z,20.78
2023-04-16T08:51:34.322Z,20.77
2023-04-16T08:54:03.464Z,20.78
2023-04-16T08:56:30.579Z,20.78
2023-04-16T08:58:57.585Z,20.78
2023-04-16T09:01:26.033Z,20.78
2023-04-16T09:03:51.877Z,20.78
2023-04-16T09:06:17.650Z,20.79
2023-04-16T09:08:44.546Z,20.79
2023-04-16T09:11:10.514Z,20.78
2023-04-16T09:13:36.911Z,20.79
2023-04-16T09:16:03.314Z,20.79
2023-04-16T09:18:30.084Z,20.78
2023-04-16T09:20:56.359Z,20.78
2023-04-16T09:23:22.103Z,20.77
2023-04-16T09:25:47.763Z,20.77
2023-04-16T09:28:41.099Z,20.79
2023-04-16T09:31:14.012Z,20.78
2023-04-16T09:33:39.896Z,20.78
2023-04-16T09:36:06.527Z,20.77
2023-04-16T09:38:48.703Z,20.79
2023-04-16T09:41:15.840Z,20.78
2023-04-16T09:43:56.523Z,20.79
2023-04-16T09:46:23.582Z,20.79
2023-04-16T09:48:49.329Z,20.80
2023-04-16T09:51:15.191Z,20.78
2023-04-16T09:53:40.834Z,20.79
2023-04-16T09:56:06.679Z,20.79
2023-04-16T09:58:35.427Z,20.80
2023-04-16T10:01:04.632Z,20.79
2023-04-16T10:03:32.035Z,20.79
2023-04-16T10:06:07.294Z,20.79
2023-04-16T10:08:32.935Z,20.78
2023-04-16T10:10:58.833Z,20.80
2023-04-16T10:13:27.074Z,20.79
2023-04-16T10:15:55.234Z,20.79
2023-04-16T10:18:21.390Z,20.79
2023-04-16T10:20:47.398Z,20.80
2023-04-16T10:23:13.488Z,20.80
2023-04-16T10:25:39.788Z,20.80
2023-04-16T10:28:06.355Z,20.80
2023-04-16T10:30:32.806Z,20.80
2023-04-16T10:33:00.547Z,20.79
2023-04-16T10:35:26.437Z,20.79
2023-04-16T10:38:27.497Z,20.78
2023-04-16T10:41:08.784Z,20.79
2023-04-16T10:43:50.834Z,20.79
2023-04-16T10:48:55.272Z,20.78
2023-04-16T10:51:31.747Z,20.80
2023-04-16T10:54:03.363Z,20.80
2023-04-16T10:56:32.070Z,20.79
2023-04-16T10:58:57.985Z,20.80
2023-04-16T11:01:44.176Z,20.80
2023-04-16T11:04:26.374Z,20.78
2023-04-16T11:07:20.059Z,20.79
2023-04-16T11:09:51.301Z,20.78
2023-04-16T11:12:18.936Z,20.80
2023-04-16T11:14:47.825Z,20.80
2023-04-16T11:17:13.457Z,20.79
2023-04-16T11:19:39.129Z,20.79
2023-04-16T11:22:04.984Z,20.82
2023-04-16T11:24:31.477Z,20.81
2023-04-16T11:26:57.132Z,20.80
2023-04-16T11:29:22.796Z,20.82
2023-04-16T11:31:50.972Z,20.80
2023-04-16T11:34:17.584Z,20.80
2023-04-16T11:36:43.948Z,20.80
2023-04-16T11:39:09.823Z,20.80
2023-04-16T11:41:43.027Z,20.82
2023-04-16T11:44:17.425Z,20.81
2023-04-16T11:46:43.130Z,20.82
2023-04-16T11:49:09.410Z,20.82
2023-04-16T11:51:40.754Z,20.82
2023-04-16T11:54:08.451Z,20.82
2023-04-16T11:56:37.201Z,20.82
2023-04-16T11:59:12.219Z,20.80
2023-04-16T12:01:39.364Z,20.81
2023-04-16T12:04:05.527Z,20.82
2023-04-16T12:06:31.981Z,20.80
2023-04-16T12:08:58.533Z,20.80
2023-04-16T12:11:44.253Z,20.81
2023-04-16T12:14:11.137Z,20.80
2023-04-16T12:16:37.092Z,20.82
2023-04-16T12:19:03.627Z,20.83
2023-04-16T12:21:38.647Z,20.81
2023-04-16T12:24:06.053Z,20.82
2023-04-16T12:26:48.059Z,20.81
2023-04-16T12:29:20.788Z,20.82
2023-04-16T12:31:47.593Z,20.80
2023-04-16T12:34:14.531Z,20.83
2023-04-16T12:36:41.126Z,20.82
2023-04-16T12:39:07.453Z,20.82
2023-04-16T12:41:36.326Z,20.82
2023-04-16T12:44:06.178Z,20.82
2023-04-16T12:46:31.885Z,20.82
2023-04-16T12:48:57.563Z,20.82
2023-04-16T12:51:23.370Z,20.82
2023-04-16T12:53:49.200Z,20.83
2023-04-16T12:56:15.924Z,20.81
2023-04-16T12:58:41.572Z,20.82
2023-04-16T13:01:07.262Z,20.83
2023-04-16T13:03:35.464Z,20.82
2023-04-16T13:06:01.598Z,20.82
2023-04-16T13:08:27.808Z,20.82
2023-04-16T13:10:53.459Z,20.81
2023-04-16T13:13:19.097Z,20.82
2023-04-16T13:15:44.780Z,20.82
2023-04-16T13:18:10.435Z,20.82
2023-04-16T13:20:36.089Z,20.82
2023-04-16T13:23:04.044Z,20.82
2023-04-16T13:25:30.365Z,20.83
2023-04-16T13:27:56.284Z,20.82
2023-04-16T13:30:21.994Z,20.84
2023-04-16T13:32:47.711Z,20.83
2023-04-16T13:35:13.473Z,20.83
2023-04-16T13:37:39.208Z,20.83
2023-04-16T13:40:05.880Z,20.84
2023-04-16T13:42:31.657Z,20.83
2023-04-16T13:44:57.678Z,20.83
2023-04-16T13:47:23.347Z,20.82
2023-04-16T13:49:49.047Z,20.81
2023-04-16T13:52:14.810Z,20.83
2023-04-16T13:54:40.713Z,20.83
2023-04-16T13:57:06.357Z,20.83
2023-04-16T13:59:32.208Z,20.83
2023-04-16T14:01:57.917Z,20.83
2023-04-16T14:04:23.756Z,20.82
2023-04-16T14:06:49.547Z,20.83
2023-04-16T14:09:15.234Z,20.85
2023-04-16T14:11:40.935Z,20.84
2023-04-16T14:14:06.658Z,20.85
2023-04-16T14:16:33.082Z,20.84
2023-04-16T14:18:58.916Z,20.84
2023-04-16T14:21:26.201Z,20.84
2023-04-16T14:23:52.029Z,20.84
2023-04-16T14:26:17.738Z,20.85
2023-04-16T14:28:43.775Z,20.82
2023-04-16T14:31:09.730Z,20.84
2023-04-16T14:33:36.053Z,20.84
2023-04-16T14:36:03.299Z,20.84
2023-04-16T14:38:29.512Z,20.84
2023-04-16T14:40:55.187Z,20.85
2023-04-16T14:43:20.890Z,20.84
2023-04-16T14:45:46.574Z,20.85
2023-04-16T14:48:12.263Z,20.84
2023-04-16T14:50:42.609Z,20.85
2023-04-16T14:53:08.543Z,20.85
2023-04-16T14:55:34.220Z,20.87
2023-04-16T14:58:00.056Z,20.86
2023-04-16T15:00:26.509Z,20.85
2023-04-16T15:02:53.435Z,20.83
2023-04-16T15:05:19.205Z,20.85
2023-04-16T15:07:44.913Z,20.85
2023-04-16T15:10:11.776Z,20.85
2023-04-16T15:12:37.684Z,20.85
2023-04-16T15:15:07.617Z,20.85
2023-04-16T15:17:33.313Z,20.86
2023-04-16T15:19:59.752Z,20.86
2023-04-16T15:22:25.487Z,20.87
2023-04-16T15:24:51.154Z,20.84
2023-04-16T15:27:17.016Z,20.85
2023-04-16T15:29:45.655Z,20.85
2023-04-16T15:32:11.663Z,20.86
2023-04-16T15:34:37.404Z,20.86
2023-04-16T15:37:03.081Z,20.85
2023-04-16T15:39:30.432Z,20.85
2023-04-16T15:42:00.475Z,20.85
2023-04-16T15:44:27.311Z,20.86
2023-04-16T15:46:52.955Z,20.87
2023-04-16T15:49:18.592Z,20.85
2023-04-16T15:51:44.233Z,20.87
2023-04-16T15:54:10.170Z,20.86
2023-04-16T15:56:35.829Z,20.86
2023-04-16T15:59:03.006Z,20.86
2023-04-16T16:01:28.733Z,20.86
2023-04-16T16:03:54.579Z,20.86
2023-04-16T16:06:20.399Z,20.85
2023-04-16T16:08:46.047Z,20.85
2023-04-16T16:11:11.694Z,20.85
2023-04-16T16:13:37.334Z,20.87
2023-04-16T16:16:03.419Z,20.87
2023-04-16T16:18:29.549Z,20.87
2023-04-16T16:20:56.571Z,20.88
2023-04-16T16:23:22.244Z,20.88
2023-04-16T16:25:47.890Z,20.87
2023-04-16T16:28:13.521Z,20.88
2023-04-16T16:30:39.906Z,20.86
2023-04-16T16:33:05.559Z,20.86
2023-04-16T16:35:31.242Z,20.88
2023-04-16T16:37:58.521Z,20.87
2023-04-16T16:40:24.546Z,20.87
2023-04-16T16:42:50.249Z,20.86
2023-04-16T16:45:16.041Z,20.88
2023-04-16T16:47:41.728Z,20.87
2023-04-16T16:50:10.491Z,20.87
2023-04-16T16:52:36.285Z,20.87
2023-04-16T16:55:02.087Z,20.87
2023-04-16T16:57:27.825Z,20.89
2023-04-16T16:59:54.806Z,20.88
2023-04-16T17:02:20.475Z,20.89
2023-04-16T17:04:46.148Z,20.89
2023-04-16T17:07:11.792Z,20.89
2023-04-16T17:09:37.972Z,20.88
2023-04-16T17:12:04.673Z,20.88
2023-04-16T17:14:31.191Z,20.89
2023-04-16T17:16:56.883Z,20.87
2023-04-16T17:19:22.577Z,20.89
2023-04-16T17:21:48.269Z,20.88
2023-04-16T17:24:14.012Z,20.88
2023-04-16T17:26:40.287Z,20.89
2023-04-16T17:29:06.048Z,20.86
2023-04-16T17:31:31.743Z,20.87
2023-04-16T17:33:58.726Z,20.89
2023-04-16T17:36:26.244Z,20.89
2023-04-16T17:38:52.087Z,20.89
2023-04-16T17:41:18.752Z,20.88
2023-04-16T17:43:47.851Z,20.89
2023-04-16T17:46:13.558Z,20.89
2023-04-16T17:48:39.258Z,20.88
2023-04-16T17:51:10.348Z,20.89
2023-04-16T17:53:35.991Z,20.88
2023-04-16T17:56:02.021Z,20.90
2023-04-16T17:58:31.936Z,20.87
2023-04-16T18:00:58.339Z,20.89
2023-04-16T18:03:24.107Z,20.89
2023-04-16T18:05:49.804Z,20.87
2023-04-16T18:08:15.493Z,20.89
2023-04-16T18:10:41.160Z,20.89
2023-04-16T18:13:06.799Z,20.90
2023-04-16T18:15:37.191Z,20.89
2023-04-16T18:18:03.832Z,20.88
2023-04-16T18:20:29.564Z,20.89
2023-04-16T18:22:55.275Z,20.89
2023-04-16T18:25:31.983Z,20.86
2023-04-16T18:27:59.890Z,20.89
2023-04-16T18:30:26.832Z,20.87
2023-04-16T18:33:16.551Z,20.89
2023-04-16T18:35:39.562Z,20.89
2023-04-16T18:38:05.559Z,20.90
2023-04-16T18:40:35.193Z,20.90
2023-04-16T18:43:01.366Z,20.90
2023-04-16T18:45:28.325Z,20.90
2023-04-16T18:47:57.562Z,20.89
2023-04-16T18:50:25.138Z,20.88
2023-04-16T18:52:51.048Z,20.88
2023-04-16T18:55:16.804Z,20.89
2023-04-16T18:57:42.452Z,20.89
2023-04-16T19:00:11.687Z,20.87
2023-04-16T19:02:38.871Z,20.89
2023-04-16T19:05:05.107Z,20.87
2023-04-16T19:07:30.806Z,20.90
2023-04-16T19:09:56.488Z,20.89
2023-04-16T19:12:22.426Z,20.89
2023-04-16T19:14:48.080Z,20.88
2023-04-16T19:17:13.740Z,20.89
2023-04-16T19:19:39.390Z,20.90
2023-04-16T19:22:05.780Z,20.90
2023-04-16T19:24:33.675Z,20.90
2023-04-16T19:27:00.140Z,20.90
2023-04-16T19:29:27.048Z,20.89
2023-04-16T19:31:52.838Z,20.88
2023-04-16T19:34:18.587Z,20.90
2023-04-16T19:36:45.089Z,20.88
2023-04-16T19:39:11.207Z,20.90
2023-04-16T19:41:37.055Z,20.90
2023-04-16T19:44:02.713Z,20.90
2023-04-16T19:46:28.360Z,20.89
2023-04-16T19:48:54.013Z,20.90
2023-04-16T19:51:19.764Z,20.89
2023-04-16T19:53:45.395Z,20.90
2023-04-16T19:56:11.477Z,20.89
2023-04-16T19:58:38.372Z,20.90
2023-04-16T20:01:11.186Z,20.90
2023-04-16T20:03:37.698Z,20.89
2023-04-16T20:06:04.612Z,20.89
2023-04-16T20:08:30.716Z,20.89
2023-04-16T20:10:56.572Z,20.90
2023-04-16T20:13:22.357Z,20.90
2023-04-16T20:15:53.005Z,20.89
2023-04-16T20:18:18.894Z,20.90
2023-04-16T20:20:44.560Z,20.89
2023-04-16T20:23:10.390Z,20.90
2023-04-16T20:25:40.708Z,20.90
2023-04-16T20:28:06.338Z,20.90
2023-04-16T20:30:37.790Z,20.90
2023-04-16T20:33:05.596Z,20.92
2023-04-16T20:35:31.949Z,20.89
2023-04-16T20:37:57.574Z,20.90
2023-04-16T20:40:23.280Z,20.90
2023-04-16T20:42:51.280Z,20.89
2023-04-16T20:45:17.727Z,20.90
2023-04-16T20:47:43.495Z,20.90
2023-04-16T20:50:10.371Z,20.90
2023-04-16T20:52:36.479Z,20.90
2023-04-16T20:55:02.692Z,20.90
2023-04-16T20:57:28.916Z,20.89
2023-04-16T20:59:55.524Z,20.92
2023-04-16T21:02:22.796Z,20.90
2023-04-16T21:04:48.830Z,20.91
2023-04-16T21:07:14.673Z,20.90
2023-04-16T21:09:40.444Z,20.90
2023-04-16T21:12:06.294Z,20.90
2023-04-16T21:14:31.933Z,20.90
2023-04-16T21:16:57.573Z,20.91
2023-04-16T21:19:23.217Z,20.91
2023-04-16T21:21:48.875Z,20.90
2023-04-16T21:24:14.609Z,20.90
2023-04-16T21:26:40.254Z,20.91
2023-04-16T21:29:05.933Z,20.91
2023-04-16T21:31:31.681Z,20.90
2023-04-16T21:33:57.384Z,20.90
2023-04-16T21:36:25.696Z,20.91
2023-04-16T21:38:51.253Z,20.91
2023-04-16T21:41:16.899Z,20.91
2023-04-16T21:43:42.546Z,20.90
2023-04-16T21:46:08.197Z,20.90
2023-04-16T21:48:33.848Z,20.91
2023-04-16T21:51:05.399Z,20.90
2023-04-16T21:53:31.846Z,20.91
2023-04-16T21:55:57.578Z,20.90
2023-04-16T21:58:24.865Z,20.90
2023-04-16T22:00:51.065Z,20.91
2023-04-16T22:03:17.735Z,20.92
2023-04-16T22:05:44.237Z,20.90
2023-04-16T22:08:23.396Z,20.92
2023-04-16T22:10:49.606Z,20.92
2023-04-16T22:13:16.965Z,20.91
2023-04-16T22:15:42.598Z,20.91
2023-04-16T22:18:08.842Z,20.91
2023-04-16T22:20:38.183Z,20.91
2023-04-16T22:23:05.343Z,20.91
2023-04-16T22:25:30.992Z,20.91
2023-04-16T22:27:56.901Z,20.92
2023-04-16T22:30:22.542Z,20.91
2023-04-16T22:32:48.264Z,20.91
2023-04-16T22:35:13.985Z,20.90
2023-04-16T22:37:39.664Z,20.91
2023-04-16T22:40:10.461Z,20.91
2023-04-16T22:42:36.144Z,20.92
2023-04-16T22:45:02.293Z,20.91
2023-04-16T22:47:27.961Z,20.91
2023-04-16T22:49:53.653Z,20.93
2023-04-16T22:52:19.293Z,20.92
2023-04-16T22:54:44.920Z,20.92
2023-04-16T22:57:10.629Z,20.91
2023-04-16T22:59:36.260Z,20.90
2023-04-16T23:02:01.971Z,20.92
2023-04-16T23:04:27.758Z,20.91
2023-04-16T23:06:53.510Z,20.92
2023-04-16T23:09:19.757Z,20.92
2023-04-16T23:11:45.491Z,20.91
2023-04-16T23:14:14.441Z,20.92
2023-04-16T23:16:41.819Z,20.92
2023-04-16T23:19:13.879Z,20.91
2023-04-16T23:21:40.066Z,20.93
2023-04-16T23:24:05.946Z,20.92
2023-04-16T23:26:32.072Z,20.92
2023-04-16T23:28:57.849Z,20.92
2023-04-16T23:31:23.586Z,20.93
2023-04-16T23:33:49.329Z,20.92
2023-04-16T23:36:14.965Z,20.91
2023-04-16T23:38:40.610Z,20.93
2023-04-16T23:41:06.242Z,20.92
2023-04-16T23:43:32.082Z,20.93
2023-04-16T23:45:57.771Z,20.90
2023-04-16T23:48:23.459Z,20.92
2023-04-16T23:50:49.102Z,20.92
2023-04-16T23:53:14.857Z,20.92
2023-04-16T23:55:40.524Z,20.93
2023-04-16T23:58:06.173Z,20.93
